sensor_id;sensor_type;location;lat;lon;timestamp;P1;durP1;ratioP1;P2;durP2;ratioP2
26435;SDS011;15351;52.408;16.826;2023-11-19T00:02:09;51.50;;;32.10;;
26435;SDS011;15351;52.408;16.826;2023-11-19T00:04:38;53.50;;;32.90;;
26435;SDS011;15351;52.408;16.826;2023-11-19T00:07:06;54.30;;;34.20;;
26435;SDS011;15351;52.408;16.826;2023-11-19T00:09:34;51.50;;;35.30;;
26435;SDS011;15351;52.408;16.826;2023-11-19T00:12:03;50.80;;;35.20;;
26435;SDS011;15351;52.408;16.826;2023-11-19T00:14:31;55.40;;;34.10;;
26435;SDS011;15351;52.408;16.826;2023-11-19T00:16:58;50.10;;;32.50;;
26435;SDS011;15351;52.408;16.826;2023-11-19T00:19:26;52.00;;;32.90;;
26435;SDS011;15351;52.408;16.826;2023-11-19T00:21:53;52.50;;;32.10;;
26435;SDS011;15351;52.408;16.826;2023-11-19T00:24:20;51.90;;;32.30;;
26435;SDS011;15351;52.408;16.826;2023-11-19T00:26:47;51.70;;;32.20;;
26435;SDS011;15351;52.408;16.826;2023-11-19T00:29:16;51.40;;;34.20;;
26435;SDS011;15351;52.408;16.826;2023-11-19T00:31:47;50.60;;;34.60;;
26435;SDS011;15351;52.408;16.826;2023-11-19T00:34:14;56.50;;;34.00;;
26435;SDS011;15351;52.408;16.826;2023-11-19T00:36:41;52.80;;;33.10;;
26435;SDS011;15351;52.408;16.826;2023-11-19T00:39:08;54.10;;;34.30;;
26435;SDS011;15351;52.408;16.826;2023-11-19T00:41:36;55.20;;;34.40;;
26435;SDS011;15351;52.408;16.826;2023-11-19T00:44:03;54.10;;;33.00;;
26435;SDS011;15351;52.408;16.826;2023-11-19T00:46:31;54.00;;;33.90;;
26435;SDS011;15351;52.408;16.826;2023-11-19T00:49:02;54.00;;;35.00;;
26435;SDS011;15351;52.408;16.826;2023-11-19T00:51:29;53.90;;;35.80;;
26435;SDS011;15351;52.408;16.826;2023-11-19T00:53:58;53.50;;;35.20;;
26435;SDS011;15351;52.408;16.826;2023-11-19T00:56:26;57.20;;;33.40;;
26435;SDS011;15351;52.408;16.826;2023-11-19T00:58:55;57.90;;;34.10;;
26435;SDS011;15351;52.408;16.826;2023-11-19T01:01:25;55.80;;;32.80;;
26435;SDS011;15351;52.408;16.826;2023-11-19T01:03:53;56.00;;;32.70;;
26435;SDS011;15351;52.408;16.826;2023-11-19T01:06:29;55.90;;;32.50;;
26435;SDS011;15351;52.408;16.826;2023-11-19T01:08:57;49.30;;;32.90;;
26435;SDS011;15351;52.408;16.826;2023-11-19T01:11:37;55.00;;;35.40;;
26435;SDS011;15351;52.408;16.826;2023-11-19T01:14:06;53.10;;;34.10;;
26435;SDS011;15351;52.408;16.826;2023-11-19T01:16:34;52.70;;;33.20;;
26435;SDS011;15351;52.408;16.826;2023-11-19T01:19:01;54.10;;;31.60;;
26435;SDS011;15351;52.408;16.826;2023-11-19T01:21:32;58.50;;;33.20;;
26435;SDS011;15351;52.408;16.826;2023-11-19T01:23:59;56.30;;;33.30;;
26435;SDS011;15351;52.408;16.826;2023-11-19T01:26:27;48.00;;;32.30;;
26435;SDS011;15351;52.408;16.826;2023-11-19T01:28:55;51.60;;;34.70;;
26435;SDS011;15351;52.408;16.826;2023-11-19T01:31:24;51.40;;;34.50;;
26435;SDS011;15351;52.408;16.826;2023-11-19T01:33:51;51.60;;;32.40;;
26435;SDS011;15351;52.408;16.826;2023-11-19T01:36:19;52.30;;;32.20;;
26435;SDS011;15351;52.408;16.826;2023-11-19T01:38:47;54.00;;;32.60;;
26435;SDS011;15351;52.408;16.826;2023-11-19T01:41:14;53.80;;;32.30;;
26435;SDS011;15351;52.408;16.826;2023-11-19T01:43:41;51.40;;;33.00;;
26435;SDS011;15351;52.408;16.826;2023-11-19T01:46:08;52.70;;;32.40;;
26435;SDS011;15351;52.408;16.826;2023-11-19T01:48:45;50.00;;;33.80;;
26435;SDS011;15351;52.408;16.826;2023-11-19T01:51:13;49.60;;;33.10;;
26435;SDS011;15351;52.408;16.826;2023-11-19T01:53:43;50.10;;;32.20;;
26435;SDS011;15351;52.408;16.826;2023-11-19T01:56:12;48.50;;;30.90;;
26435;SDS011;15351;52.408;16.826;2023-11-19T01:58:41;49.00;;;31.20;;
26435;SDS011;15351;52.408;16.826;2023-11-19T02:01:13;50.50;;;31.30;;
26435;SDS011;15351;52.408;16.826;2023-11-19T02:03:40;52.20;;;32.20;;
26435;SDS011;15351;52.408;16.826;2023-11-19T02:06:08;50.70;;;32.20;;
26435;SDS011;15351;52.408;16.826;2023-11-19T02:08:37;52.70;;;33.10;;
26435;SDS011;15351;52.408;16.826;2023-11-19T02:11:05;51.70;;;32.90;;
26435;SDS011;15351;52.408;16.826;2023-11-19T02:13:34;50.40;;;32.80;;
26435;SDS011;15351;52.408;16.826;2023-11-19T02:16:04;52.80;;;33.00;;
26435;SDS011;15351;52.408;16.826;2023-11-19T02:18:31;54.80;;;33.10;;
26435;SDS011;15351;52.408;16.826;2023-11-19T02:24:21;53.70;;;34.40;;
26435;SDS011;15351;52.408;16.826;2023-11-19T02:27:27;54.50;;;36.30;;
26435;SDS011;15351;52.408;16.826;2023-11-19T02:30:44;57.60;;;36.40;;
26435;SDS011;15351;52.408;16.826;2023-11-19T02:33:46;58.40;;;35.20;;
26435;SDS011;15351;52.408;16.826;2023-11-19T02:36:17;55.40;;;33.80;;
26435;SDS011;15351;52.408;16.826;2023-11-19T02:39:14;60.00;;;35.00;;
26435;SDS011;15351;52.408;16.826;2023-11-19T02:42:08;55.50;;;34.10;;
26435;SDS011;15351;52.408;16.826;2023-11-19T02:44:44;55.60;;;34.30;;
26435;SDS011;15351;52.408;16.826;2023-11-19T02:47:26;56.20;;;34.70;;
26435;SDS011;15351;52.408;16.826;2023-11-19T02:50:08;54.90;;;33.60;;
26435;SDS011;15351;52.408;16.826;2023-11-19T02:53:15;52.50;;;35.00;;
26435;SDS011;15351;52.408;16.826;2023-11-19T02:56:06;54.60;;;35.90;;
26435;SDS011;15351;52.408;16.826;2023-11-19T02:59:00;57.90;;;33.80;;
26435;SDS011;15351;52.408;16.826;2023-11-19T03:01:47;58.00;;;34.00;;
26435;SDS011;15351;52.408;16.826;2023-11-19T03:04:23;53.30;;;32.80;;
26435;SDS011;15351;52.408;16.826;2023-11-19T03:07:20;56.60;;;32.60;;
26435;SDS011;15351;52.408;16.826;2023-11-19T03:09:55;51.20;;;34.20;;
26435;SDS011;15351;52.408;16.826;2023-11-19T03:12:28;53.20;;;34.50;;
26435;SDS011;15351;52.408;16.826;2023-11-19T03:22:46;55.70;;;32.60;;
26435;SDS011;15351;52.408;16.826;2023-11-19T03:25:42;54.20;;;33.10;;
26435;SDS011;15351;52.408;16.826;2023-11-19T03:32:32;56.30;;;32.60;;
26435;SDS011;15351;52.408;16.826;2023-11-19T03:35:26;54.60;;;32.60;;
26435;SDS011;15351;52.408;16.826;2023-11-19T03:38:32;52.30;;;35.00;;
26435;SDS011;15351;52.408;16.826;2023-11-19T03:41:27;52.60;;;32.60;;
26435;SDS011;15351;52.408;16.826;2023-11-19T03:47:38;53.70;;;32.60;;
26435;SDS011;15351;52.408;16.826;2023-11-19T03:56:07;50.90;;;33.40;;
26435;SDS011;15351;52.408;16.826;2023-11-19T03:58:39;51.60;;;33.80;;
26435;SDS011;15351;52.408;16.826;2023-11-19T04:02:16;54.50;;;33.40;;
26435;SDS011;15351;52.408;16.826;2023-11-19T04:05:25;52.90;;;32.50;;
26435;SDS011;15351;52.408;16.826;2023-11-19T04:08:00;53.80;;;32.10;;
26435;SDS011;15351;52.408;16.826;2023-11-19T04:10:28;52.30;;;32.20;;
26435;SDS011;15351;52.408;16.826;2023-11-19T04:13:49;52.90;;;31.30;;
26435;SDS011;15351;52.408;16.826;2023-11-19T04:17:01;51.10;;;31.20;;
26435;SDS011;15351;52.408;16.826;2023-11-19T04:23:00;50.10;;;32.40;;
26435;SDS011;15351;52.408;16.826;2023-11-19T04:25:42;47.40;;;32.90;;
26435;SDS011;15351;52.408;16.826;2023-11-19T04:28:12;49.60;;;30.90;;
26435;SDS011;15351;52.408;16.826;2023-11-19T04:31:04;50.20;;;30.50;;
26435;SDS011;15351;52.408;16.826;2023-11-19T04:33:47;48.50;;;29.90;;
26435;SDS011;15351;52.408;16.826;2023-11-19T04:59:07;42.80;;;28.40;;
26435;SDS011;15351;52.408;16.826;2023-11-19T05:02:07;45.60;;;28.30;;
26435;SDS011;15351;52.408;16.826;2023-11-19T05:05:01;43.70;;;29.10;;
26435;SDS011;15351;52.408;16.826;2023-11-19T05:08:23;44.30;;;30.00;;
26435;SDS011;15351;52.408;16.826;2023-11-19T05:10:59;46.10;;;28.00;;
26435;SDS011;15351;52.408;16.826;2023-11-19T05:13:52;45.30;;;29.00;;
26435;SDS011;15351;52.408;16.826;2023-11-19T05:17:09;45.50;;;28.50;;
26435;SDS011;15351;52.408;16.826;2023-11-19T05:20:14;42.30;;;26.90;;
26435;SDS011;15351;52.408;16.826;2023-11-19T05:25:52;41.90;;;26.50;;
26435;SDS011;15351;52.408;16.826;2023-11-19T05:28:46;43.20;;;27.10;;
26435;SDS011;15351;52.408;16.826;2023-11-19T05:31:38;43.30;;;26.70;;
26435;SDS011;15351;52.408;16.826;2023-11-19T05:34:31;44.50;;;27.80;;
26435;SDS011;15351;52.408;16.826;2023-11-19T05:37:08;43.30;;;26.40;;
26435;SDS011;15351;52.408;16.826;2023-11-19T05:39:47;42.70;;;25.10;;
26435;SDS011;15351;52.408;16.826;2023-11-19T05:42:15;41.30;;;27.10;;
26435;SDS011;15351;52.408;16.826;2023-11-19T05:44:46;41.20;;;27.10;;
26435;SDS011;15351;52.408;16.826;2023-11-19T05:47:20;41.10;;;27.80;;
26435;SDS011;15351;52.408;16.826;2023-11-19T05:49:48;42.40;;;25.60;;
26435;SDS011;15351;52.408;16.826;2023-11-19T05:59:18;35.40;;;24.60;;
26435;SDS011;15351;52.408;16.826;2023-11-19T06:01:54;37.20;;;25.20;;
26435;SDS011;15351;52.408;16.826;2023-11-19T06:04:30;42.50;;;24.70;;
26435;SDS011;15351;52.408;16.826;2023-11-19T06:07:25;38.40;;;23.70;;
26435;SDS011;15351;52.408;16.826;2023-11-19T06:09:57;44.20;;;26.00;;
26435;SDS011;15351;52.408;16.826;2023-11-19T06:12:45;42.60;;;28.50;;
26435;SDS011;15351;52.408;16.826;2023-11-19T06:15:16;38.90;;;26.20;;
26435;SDS011;15351;52.408;16.826;2023-11-19T06:21:14;38.40;;;23.10;;
26435;SDS011;15351;52.408;16.826;2023-11-19T06:23:51;38.00;;;22.50;;
26435;SDS011;15351;52.408;16.826;2023-11-19T06:26:50;37.90;;;23.20;;
26435;SDS011;15351;52.408;16.826;2023-11-19T06:29:37;36.90;;;23.00;;
26435;SDS011;15351;52.408;16.826;2023-11-19T06:32:18;34.60;;;25.20;;
26435;SDS011;15351;52.408;16.826;2023-11-19T06:35:19;35.30;;;24.20;;
26435;SDS011;15351;52.408;16.826;2023-11-19T06:37:53;36.50;;;23.40;;
26435;SDS011;15351;52.408;16.826;2023-11-19T06:44:14;35.60;;;22.90;;
26435;SDS011;15351;52.408;16.826;2023-11-19T06:47:09;34.90;;;22.30;;
26435;SDS011;15351;52.408;16.826;2023-11-19T06:49:59;32.30;;;23.20;;
26435;SDS011;15351;52.408;16.826;2023-11-19T06:52:58;33.30;;;24.20;;
26435;SDS011;15351;52.408;16.826;2023-11-19T06:55:54;36.90;;;22.90;;
26435;SDS011;15351;52.408;16.826;2023-11-19T06:58:38;35.30;;;22.10;;
26435;SDS011;15351;52.408;16.826;2023-11-19T07:01:19;33.10;;;21.80;;
26435;SDS011;15351;52.408;16.826;2023-11-19T07:03:50;36.70;;;23.00;;
26435;SDS011;15351;52.408;16.826;2023-11-19T07:06:21;32.40;;;22.90;;
26435;SDS011;15351;52.408;16.826;2023-11-19T07:09:32;33.30;;;23.40;;
26435;SDS011;15351;52.408;16.826;2023-11-19T07:12:11;34.60;;;22.20;;
26435;SDS011;15351;52.408;16.826;2023-11-19T07:20:38;36.30;;;21.70;;
26435;SDS011;15351;52.408;16.826;2023-11-19T07:23:20;32.70;;;23.50;;
26435;SDS011;15351;52.408;16.826;2023-11-19T07:25:47;33.70;;;24.40;;
26435;SDS011;15351;52.408;16.826;2023-11-19T07:29:05;37.50;;;22.40;;
26435;SDS011;15351;52.408;16.826;2023-11-19T07:31:46;34.50;;;22.20;;
26435;SDS011;15351;52.408;16.826;2023-11-19T07:34:16;34.40;;;22.10;;
26435;SDS011;15351;52.408;16.826;2023-11-19T07:36:57;35.20;;;21.80;;
26435;SDS011;15351;52.408;16.826;2023-11-19T07:39:37;31.30;;;22.20;;
26435;SDS011;15351;52.408;16.826;2023-11-19T07:42:13;34.30;;;23.20;;
26435;SDS011;15351;52.408;16.826;2023-11-19T07:48:34;31.40;;;21.00;;
26435;SDS011;15351;52.408;16.826;2023-11-19T07:54:26;32.60;;;20.30;;
26435;SDS011;15351;52.408;16.826;2023-11-19T07:57:18;31.30;;;21.40;;
26435;SDS011;15351;52.408;16.826;2023-11-19T08:00:03;31.00;;;22.30;;
26435;SDS011;15351;52.408;16.826;2023-11-19T08:02:53;31.30;;;20.30;;
26435;SDS011;15351;52.408;16.826;2023-11-19T08:06:05;30.70;;;20.30;;
26435;SDS011;15351;52.408;16.826;2023-11-19T08:14:22;29.10;;;19.10;;
26435;SDS011;15351;52.408;16.826;2023-11-19T08:17:21;26.60;;;19.40;;
26435;SDS011;15351;52.408;16.826;2023-11-19T08:20:01;26.90;;;20.40;;
26435;SDS011;15351;52.408;16.826;2023-11-19T08:23:09;29.50;;;18.20;;
26435;SDS011;15351;52.408;16.826;2023-11-19T08:29:15;27.90;;;18.10;;
26435;SDS011;15351;52.408;16.826;2023-11-19T08:31:57;28.10;;;18.40;;
26435;SDS011;15351;52.408;16.826;2023-11-19T08:34:47;25.50;;;19.20;;
26435;SDS011;15351;52.408;16.826;2023-11-19T08:38:25;28.40;;;19.80;;
26435;SDS011;15351;52.408;16.826;2023-11-19T08:41:23;27.70;;;18.90;;
26435;SDS011;15351;52.408;16.826;2023-11-19T08:44:35;26.70;;;18.80;;
26435;SDS011;15351;52.408;16.826;2023-11-19T08:55:16;27.40;;;18.70;;
26435;SDS011;15351;52.408;16.826;2023-11-19T08:58:14;26.20;;;17.50;;
26435;SDS011;15351;52.408;16.826;2023-11-19T09:01:20;26.40;;;18.50;;
26435;SDS011;15351;52.408;16.826;2023-11-19T09:04:16;25.30;;;17.60;;
26435;SDS011;15351;52.408;16.826;2023-11-19T09:07:18;26.80;;;18.00;;
26435;SDS011;15351;52.408;16.826;2023-11-19T09:09:55;26.70;;;17.40;;
26435;SDS011;15351;52.408;16.826;2023-11-19T09:12:27;28.90;;;17.80;;
26435;SDS011;15351;52.408;16.826;2023-11-19T09:14:55;25.90;;;18.10;;
26435;SDS011;15351;52.408;16.826;2023-11-19T09:17:23;24.50;;;18.40;;
26435;SDS011;15351;52.408;16.826;2023-11-19T09:23:28;26.10;;;18.00;;
26435;SDS011;15351;52.408;16.826;2023-11-19T09:26:25;25.10;;;17.40;;
26435;SDS011;15351;52.408;16.826;2023-11-19T09:29:15;25.10;;;18.40;;
26435;SDS011;15351;52.408;16.826;2023-11-19T09:32:06;24.30;;;17.40;;
26435;SDS011;15351;52.408;16.826;2023-11-19T09:34:41;26.60;;;17.90;;
26435;SDS011;15351;52.408;16.826;2023-11-19T09:43:50;27.00;;;19.10;;
26435;SDS011;15351;52.408;16.826;2023-11-19T09:46:39;26.20;;;18.50;;
26435;SDS011;15351;52.408;16.826;2023-11-19T09:49:29;25.70;;;18.50;;
26435;SDS011;15351;52.408;16.826;2023-11-19T09:55:01;26.00;;;18.70;;
26435;SDS011;15351;52.408;16.826;2023-11-19T09:57:32;26.70;;;18.30;;
26435;SDS011;15351;52.408;16.826;2023-11-19T10:00:10;26.40;;;18.30;;
26435;SDS011;15351;52.408;16.826;2023-11-19T10:03:05;27.30;;;18.80;;
26435;SDS011;15351;52.408;16.826;2023-11-19T10:05:43;26.10;;;17.90;;
26435;SDS011;15351;52.408;16.826;2023-11-19T10:08:22;26.00;;;18.70;;
26435;SDS011;15351;52.408;16.826;2023-11-19T10:14:41;26.60;;;18.40;;
26435;SDS011;15351;52.408;16.826;2023-11-19T10:27:31;25.10;;;17.70;;
26435;SDS011;15351;52.408;16.826;2023-11-19T10:30:15;24.10;;;17.10;;
26435;SDS011;15351;52.408;16.826;2023-11-19T10:33:36;24.50;;;16.10;;
26435;SDS011;15351;52.408;16.826;2023-11-19T10:36:46;23.80;;;16.70;;
26435;SDS011;15351;52.408;16.826;2023-11-19T10:39:15;23.20;;;15.70;;
26435;SDS011;15351;52.408;16.826;2023-11-19T10:42:28;21.90;;;15.10;;
26435;SDS011;15351;52.408;16.826;2023-11-19T10:45:39;19.80;;;14.10;;
26435;SDS011;15351;52.408;16.826;2023-11-19T10:48:29;21.20;;;15.00;;
26435;SDS011;15351;52.408;16.826;2023-11-19T10:51:08;20.80;;;14.70;;
26435;SDS011;15351;52.408;16.826;2023-11-19T10:53:52;20.90;;;14.80;;
26435;SDS011;15351;52.408;16.826;2023-11-19T10:56:38;21.20;;;14.70;;
26435;SDS011;15351;52.408;16.826;2023-11-19T11:03:41;19.50;;;13.20;;
26435;SDS011;15351;52.408;16.826;2023-11-19T11:06:39;17.30;;;13.10;;
26435;SDS011;15351;52.408;16.826;2023-11-19T11:09:23;18.00;;;12.80;;
26435;SDS011;15351;52.408;16.826;2023-11-19T11:11:53;19.00;;;13.90;;
26435;SDS011;15351;52.408;16.826;2023-11-19T11:14:22;18.80;;;13.10;;
26435;SDS011;15351;52.408;16.826;2023-11-19T11:16:59;19.20;;;13.70;;
26435;SDS011;15351;52.408;16.826;2023-11-19T11:19:28;18.80;;;13.10;;
26435;SDS011;15351;52.408;16.826;2023-11-19T11:21:57;20.40;;;14.10;;
26435;SDS011;15351;52.408;16.826;2023-11-19T11:24:45;20.40;;;13.60;;
26435;SDS011;15351;52.408;16.826;2023-11-19T11:27:43;18.70;;;13.90;;
26435;SDS011;15351;52.408;16.826;2023-11-19T11:30:25;21.40;;;13.60;;
26435;SDS011;15351;52.408;16.826;2023-11-19T11:33:15;20.70;;;14.40;;
26435;SDS011;15351;52.408;16.826;2023-11-19T11:38:45;20.30;;;15.70;;
26435;SDS011;15351;52.408;16.826;2023-11-19T11:41:22;21.50;;;15.60;;
26435;SDS011;15351;52.408;16.826;2023-11-19T11:43:52;22.80;;;15.20;;
26435;SDS011;15351;52.408;16.826;2023-11-19T11:49:06;22.30;;;15.60;;
26435;SDS011;15351;52.408;16.826;2023-11-19T11:57:02;26.20;;;17.00;;
26435;SDS011;15351;52.408;16.826;2023-11-19T11:59:56;24.30;;;16.70;;
26435;SDS011;15351;52.408;16.826;2023-11-19T12:02:24;24.40;;;16.90;;
26435;SDS011;15351;52.408;16.826;2023-11-19T12:04:52;23.60;;;17.00;;
26435;SDS011;15351;52.408;16.826;2023-11-19T12:07:20;24.30;;;17.80;;
26435;SDS011;15351;52.408;16.826;2023-11-19T12:09:53;25.60;;;17.60;;
26435;SDS011;15351;52.408;16.826;2023-11-19T12:12:34;25.00;;;17.20;;
26435;SDS011;15351;52.408;16.826;2023-11-19T12:15:25;26.90;;;17.40;;
26435;SDS011;15351;52.408;16.826;2023-11-19T12:17:54;26.70;;;17.20;;
26435;SDS011;15351;52.408;16.826;2023-11-19T12:20:22;27.10;;;18.70;;
26435;SDS011;15351;52.408;16.826;2023-11-19T12:22:50;28.40;;;19.00;;
26435;SDS011;15351;52.408;16.826;2023-11-19T12:25:18;26.40;;;17.90;;
26435;SDS011;15351;52.408;16.826;2023-11-19T12:27:50;25.80;;;17.80;;
26435;SDS011;15351;52.408;16.826;2023-11-19T12:30:24;27.70;;;18.70;;
26435;SDS011;15351;52.408;16.826;2023-11-19T12:32:52;26.40;;;18.40;;
26435;SDS011;15351;52.408;16.826;2023-11-19T12:35:25;26.60;;;18.40;;
26435;SDS011;15351;52.408;16.826;2023-11-19T12:37:53;29.60;;;18.80;;
26435;SDS011;15351;52.408;16.826;2023-11-19T12:40:24;29.20;;;19.40;;
26435;SDS011;15351;52.408;16.826;2023-11-19T12:43:00;30.40;;;20.20;;
26435;SDS011;15351;52.408;16.826;2023-11-19T12:45:34;32.80;;;21.50;;
26435;SDS011;15351;52.408;16.826;2023-11-19T12:48:06;29.50;;;19.50;;
26435;SDS011;15351;52.408;16.826;2023-11-19T12:50:50;28.20;;;18.80;;
26435;SDS011;15351;52.408;16.826;2023-11-19T12:53:21;28.10;;;18.90;;
26435;SDS011;15351;52.408;16.826;2023-11-19T12:55:49;32.00;;;19.80;;
26435;SDS011;15351;52.408;16.826;2023-11-19T12:58:30;30.50;;;19.10;;
26435;SDS011;15351;52.408;16.826;2023-11-19T13:01:02;27.70;;;19.20;;
26435;SDS011;15351;52.408;16.826;2023-11-19T13:03:31;27.70;;;19.70;;
26435;SDS011;15351;52.408;16.826;2023-11-19T13:06:07;28.90;;;20.40;;
26435;SDS011;15351;52.408;16.826;2023-11-19T13:08:40;30.70;;;20.80;;
26435;SDS011;15351;52.408;16.826;2023-11-19T13:11:14;32.00;;;21.70;;
26435;SDS011;15351;52.408;16.826;2023-11-19T13:13:56;32.80;;;21.90;;
26435;SDS011;15351;52.408;16.826;2023-11-19T13:16:32;33.30;;;22.00;;
26435;SDS011;15351;52.408;16.826;2023-11-19T13:19:00;30.30;;;19.80;;
26435;SDS011;15351;52.408;16.826;2023-11-19T13:21:26;31.70;;;19.40;;
26435;SDS011;15351;52.408;16.826;2023-11-19T13:23:55;31.20;;;20.20;;
26435;SDS011;15351;52.408;16.826;2023-11-19T13:26:22;29.30;;;19.70;;
26435;SDS011;15351;52.408;16.826;2023-11-19T13:28:49;30.80;;;20.10;;
26435;SDS011;15351;52.408;16.826;2023-11-19T13:31:16;28.30;;;20.70;;
26435;SDS011;15351;52.408;16.826;2023-11-19T13:33:49;30.30;;;21.00;;
26435;SDS011;15351;52.408;16.826;2023-11-19T13:36:26;30.30;;;19.30;;
26435;SDS011;15351;52.408;16.826;2023-11-19T13:38:54;33.30;;;20.90;;
26435;SDS011;15351;52.408;16.826;2023-11-19T13:41:25;30.20;;;20.40;;
26435;SDS011;15351;52.408;16.826;2023-11-19T13:43:53;29.30;;;19.40;;
26435;SDS011;15351;52.408;16.826;2023-11-19T13:46:23;32.00;;;19.10;;
26435;SDS011;15351;52.408;16.826;2023-11-19T13:48:50;27.60;;;20.10;;
26435;SDS011;15351;52.408;16.826;2023-11-19T13:51:16;36.60;;;25.50;;
26435;SDS011;15351;52.408;16.826;2023-11-19T13:53:43;34.60;;;21.10;;
26435;SDS011;15351;52.408;16.826;2023-11-19T13:56:10;31.50;;;19.60;;
26435;SDS011;15351;52.408;16.826;2023-11-19T13:58:38;30.90;;;19.40;;
26435;SDS011;15351;52.408;16.826;2023-11-19T14:01:06;27.20;;;19.30;;
26435;SDS011;15351;52.408;16.826;2023-11-19T14:03:34;27.20;;;19.80;;
26435;SDS011;15351;52.408;16.826;2023-11-19T14:06:01;41.10;;;26.00;;
26435;SDS011;15351;52.408;16.826;2023-11-19T14:08:29;41.00;;;23.50;;
26435;SDS011;15351;52.408;16.826;2023-11-19T14:10:57;32.50;;;20.50;;
26435;SDS011;15351;52.408;16.826;2023-11-19T14:13:24;31.10;;;19.60;;
26435;SDS011;15351;52.408;16.826;2023-11-19T14:15:51;27.60;;;19.30;;
26435;SDS011;15351;52.408;16.826;2023-11-19T14:18:19;28.90;;;20.60;;
26435;SDS011;15351;52.408;16.826;2023-11-19T14:20:58;26.00;;;18.90;;
26435;SDS011;15351;52.408;16.826;2023-11-19T14:23:26;28.20;;;17.80;;
26435;SDS011;15351;52.408;16.826;2023-11-19T14:25:54;30.20;;;19.20;;
26435;SDS011;15351;52.408;16.826;2023-11-19T14:28:21;29.50;;;17.90;;
26435;SDS011;15351;52.408;16.826;2023-11-19T14:30:48;27.00;;;18.00;;
26435;SDS011;15351;52.408;16.826;2023-11-19T14:33:24;31.40;;;21.80;;
26435;SDS011;15351;52.408;16.826;2023-11-19T14:35:50;31.90;;;21.30;;
26435;SDS011;15351;52.408;16.826;2023-11-19T14:38:18;34.30;;;21.40;;
26435;SDS011;15351;52.408;16.826;2023-11-19T14:40:45;35.90;;;21.80;;
26435;SDS011;15351;52.408;16.826;2023-11-19T14:43:13;35.00;;;21.40;;
26435;SDS011;15351;52.408;16.826;2023-11-19T14:45:42;35.00;;;24.00;;
26435;SDS011;15351;52.408;16.826;2023-11-19T14:48:11;40.20;;;28.40;;
26435;SDS011;15351;52.408;16.826;2023-11-19T14:50:37;44.50;;;28.00;;
26435;SDS011;15351;52.408;16.826;2023-11-19T14:53:04;50.20;;;30.50;;
26435;SDS011;15351;52.408;16.826;2023-11-19T14:55:31;50.50;;;31.30;;
26435;SDS011;15351;52.408;16.826;2023-11-19T14:57:59;51.00;;;32.70;;
26435;SDS011;15351;52.408;16.826;2023-11-19T15:00:26;55.30;;;35.00;;
26435;SDS011;15351;52.408;16.826;2023-11-19T15:02:53;53.30;;;34.30;;
26435;SDS011;15351;52.408;16.826;2023-11-19T15:05:20;57.00;;;36.00;;
26435;SDS011;15351;52.408;16.826;2023-11-19T15:07:47;55.30;;;34.80;;
26435;SDS011;15351;52.408;16.826;2023-11-19T15:10:15;54.80;;;34.90;;
26435;SDS011;15351;52.408;16.826;2023-11-19T15:12:45;59.20;;;36.80;;
26435;SDS011;15351;52.408;16.826;2023-11-19T15:15:22;55.80;;;35.30;;
26435;SDS011;15351;52.408;16.826;2023-11-19T15:17:48;58.80;;;36.10;;
26435;SDS011;15351;52.408;16.826;2023-11-19T15:20:15;60.30;;;36.60;;
26435;SDS011;15351;52.408;16.826;2023-11-19T15:22:47;58.40;;;40.20;;
26435;SDS011;15351;52.408;16.826;2023-11-19T15:25:19;63.00;;;40.20;;
26435;SDS011;15351;52.408;16.826;2023-11-19T15:27:45;61.20;;;38.00;;
26435;SDS011;15351;52.408;16.826;2023-11-19T15:30:13;64.00;;;38.20;;
26435;SDS011;15351;52.408;16.826;2023-11-19T15:32:40;60.60;;;38.40;;
26435;SDS011;15351;52.408;16.826;2023-11-19T15:35:08;62.70;;;38.90;;
26435;SDS011;15351;52.408;16.826;2023-11-19T15:37:37;62.80;;;37.30;;
26435;SDS011;15351;52.408;16.826;2023-11-19T15:40:10;64.00;;;38.00;;
26435;SDS011;15351;52.408;16.826;2023-11-19T15:42:46;64.10;;;39.20;;
26435;SDS011;15351;52.408;16.826;2023-11-19T15:45:15;63.70;;;37.40;;
26435;SDS011;15351;52.408;16.826;2023-11-19T15:47:43;59.40;;;36.00;;
26435;SDS011;15351;52.408;16.826;2023-11-19T15:50:14;54.70;;;36.70;;
26435;SDS011;15351;52.408;16.826;2023-11-19T15:52:41;58.20;;;39.20;;
26435;SDS011;15351;52.408;16.826;2023-11-19T15:55:10;67.40;;;40.10;;
26435;SDS011;15351;52.408;16.826;2023-11-19T15:57:41;68.80;;;42.10;;
26435;SDS011;15351;52.408;16.826;2023-11-19T16:00:08;66.10;;;41.20;;
26435;SDS011;15351;52.408;16.826;2023-11-19T16:02:37;66.50;;;40.30;;
26435;SDS011;15351;52.408;16.826;2023-11-19T16:05:06;68.70;;;40.00;;
26435;SDS011;15351;52.408;16.826;2023-11-19T16:07:36;62.70;;;38.30;;
26435;SDS011;15351;52.408;16.826;2023-11-19T16:10:03;64.30;;;38.50;;
26435;SDS011;15351;52.408;16.826;2023-11-19T16:12:31;59.20;;;37.10;;
26435;SDS011;15351;52.408;16.826;2023-11-19T16:14:58;63.40;;;39.00;;
26435;SDS011;15351;52.408;16.826;2023-11-19T16:17:25;63.30;;;38.40;;
26435;SDS011;15351;52.408;16.826;2023-11-19T16:19:57;65.90;;;38.90;;
26435;SDS011;15351;52.408;16.826;2023-11-19T16:22:24;66.40;;;38.80;;
26435;SDS011;15351;52.408;16.826;2023-11-19T16:24:51;63.90;;;37.80;;
26435;SDS011;15351;52.408;16.826;2023-11-19T16:27:21;65.10;;;39.10;;
26435;SDS011;15351;52.408;16.826;2023-11-19T16:29:48;64.40;;;40.00;;
26435;SDS011;15351;52.408;16.826;2023-11-19T16:32:14;65.90;;;38.90;;
26435;SDS011;15351;52.408;16.826;2023-11-19T16:34:44;62.10;;;36.10;;
26435;SDS011;15351;52.408;16.826;2023-11-19T16:37:15;59.60;;;34.90;;
26435;SDS011;15351;52.408;16.826;2023-11-19T16:39:43;54.10;;;32.60;;
26435;SDS011;15351;52.408;16.826;2023-11-19T16:42:11;55.80;;;33.00;;
26435;SDS011;15351;52.408;16.826;2023-11-19T16:44:37;52.40;;;32.00;;
26435;SDS011;15351;52.408;16.826;2023-11-19T16:47:07;53.10;;;31.80;;
26435;SDS011;15351;52.408;16.826;2023-11-19T16:49:36;53.90;;;32.00;;
26435;SDS011;15351;52.408;16.826;2023-11-19T16:52:08;50.20;;;31.70;;
26435;SDS011;15351;52.408;16.826;2023-11-19T16:54:40;50.00;;;32.20;;
26435;SDS011;15351;52.408;16.826;2023-11-19T16:57:06;51.20;;;32.10;;
26435;SDS011;15351;52.408;16.826;2023-11-19T16:59:45;49.20;;;31.60;;
26435;SDS011;15351;52.408;16.826;2023-11-19T17:02:14;46.40;;;29.30;;
26435;SDS011;15351;52.408;16.826;2023-11-19T17:04:47;44.50;;;28.80;;
26435;SDS011;15351;52.408;16.826;2023-11-19T17:07:35;46.00;;;28.70;;
26435;SDS011;15351;52.408;16.826;2023-11-19T17:10:21;44.50;;;31.00;;
26435;SDS011;15351;52.408;16.826;2023-11-19T17:12:56;45.40;;;28.80;;
26435;SDS011;15351;52.408;16.826;2023-11-19T17:15:23;44.50;;;27.70;;
26435;SDS011;15351;52.408;16.826;2023-11-19T17:17:50;41.20;;;26.70;;
26435;SDS011;15351;52.408;16.826;2023-11-19T17:20:21;43.20;;;25.80;;
26435;SDS011;15351;52.408;16.826;2023-11-19T17:22:48;39.50;;;24.50;;
26435;SDS011;15351;52.408;16.826;2023-11-19T17:25:26;35.20;;;22.90;;
26435;SDS011;15351;52.408;16.826;2023-11-19T17:27:54;34.00;;;21.00;;